createdAt,value
2018-06-18T17:43:05.082Z,2.00
2018-06-18T17:45:34.340Z,1.87
2018-06-18T17:48:03.744Z,2.40
2018-06-18T17:50:32.950Z,1.70
2018-06-18T17:53:02.174Z,1.80
2018-06-18T17:55:31.468Z,4.40
2018-06-18T17:58:00.681Z,1.67
2018-06-18T18:00:29.941Z,1.97
2018-06-18T18:02:59.178Z,1.63
2018-06-18T18:05:28.400Z,1.40
2018-06-18T18:07:57.659Z,1.63
2018-06-18T18:10:26.937Z,1.33
2018-06-18T18:12:56.215Z,1.23
2018-06-18T18:15:25.386Z,2.30
2018-06-18T18:17:54.610Z,2.37
2018-06-18T18:20:23.922Z,4.73
2018-06-18T18:22:53.274Z,3.33
2018-06-18T18:25:22.430Z,2.60
2018-06-18T18:27:51.624Z,3.33
2018-06-18T18:30:20.929Z,2.37
2018-06-18T18:32:50.187Z,2.30
2018-06-18T18:35:19.436Z,1.80
2018-06-18T18:37:48.915Z,2.00
2018-06-18T18:40:18.210Z,2.60
2018-06-18T18:42:47.769Z,1.83
2018-06-18T18:45:17.148Z,1.90
2018-06-18T18:47:46.385Z,1.57
2018-06-18T18:50:15.536Z,1.50
2018-06-18T18:52:44.722Z,2.20
2018-06-18T18:55:43.218Z,1.90
2018-06-18T18:58:29.685Z,2.70
2018-06-18T19:00:58.869Z,1.67
2018-06-18T19:03:29.901Z,2.13
2018-06-18T19:05:59.863Z,2.53
2018-06-18T19:08:31.726Z,1.80
2018-06-18T19:11:03.395Z,1.90
2018-06-18T19:13:36.066Z,2.70
2018-06-18T19:16:05.861Z,2.40
2018-06-18T19:18:36.680Z,3.23
2018-06-18T19:21:10.721Z,2.27
2018-06-18T19:23:39.970Z,2.37
2018-06-18T19:26:09.316Z,2.80
2018-06-18T19:28:38.926Z,2.60
2018-06-18T19:31:12.029Z,2.80
2018-06-18T19:33:57.556Z,2.50
2018-06-18T19:36:26.975Z,2.90
2018-06-18T19:38:56.291Z,2.40
2018-06-18T19:41:25.532Z,3.00
2018-06-18T19:43:54.904Z,2.90
2018-06-18T19:46:33.456Z,3.53
2018-06-18T19:49:10.592Z,3.40
2018-06-18T19:51:40.253Z,3.70
2018-06-18T19:54:14.555Z,3.67
2018-06-18T19:56:43.890Z,3.60
2018-06-18T19:59:13.150Z,3.50
2018-06-18T20:01:42.481Z,3.17
2018-06-18T20:04:11.898Z,3.13
2018-06-18T20:06:41.942Z,3.60
2018-06-18T20:09:12.524Z,2.70
2018-06-18T20:11:42.535Z,4.87
2018-06-18T20:14:11.913Z,3.60
2018-06-18T20:16:41.149Z,4.90
2018-06-18T20:19:10.393Z,3.50
2018-06-18T20:21:39.670Z,3.00
2018-06-18T20:24:08.838Z,3.13
2018-06-18T20:26:38.086Z,3.63
2018-06-18T20:29:07.507Z,3.60
2018-06-18T20:31:36.749Z,2.83
2018-06-18T20:34:06.729Z,2.70
2018-06-18T20:36:36.938Z,2.90
2018-06-18T20:39:10.261Z,2.77
2018-06-18T20:41:39.642Z,2.50
2018-06-18T20:44:12.741Z,3.27
2018-06-18T20:46:41.972Z,3.30
2018-06-18T20:49:13.570Z,2.90
2018-06-18T20:51:42.989Z,3.13
2018-06-18T20:54:12.778Z,3.30
2018-06-18T20:56:42.081Z,3.07
2018-06-18T20:59:13.295Z,2.43
2018-06-18T21:01:42.439Z,2.67
2018-06-18T21:04:11.578Z,3.10
2018-06-18T21:06:40.871Z,3.93
2018-06-18T21:09:11.674Z,3.07
2018-06-18T21:11:41.075Z,2.47
2018-06-18T21:14:11.478Z,4.07
2018-06-18T21:16:44.160Z,4.13
2018-06-18T21:19:13.392Z,3.87
2018-06-18T21:21:42.614Z,3.50
2018-06-18T21:24:11.754Z,3.23
2018-06-18T21:26:40.911Z,3.20
2018-06-18T21:29:10.457Z,3.80
2018-06-18T21:31:39.593Z,3.53
2018-06-18T21:34:08.752Z,3.80
2018-06-18T21:36:37.960Z,3.43
2018-06-18T21:39:09.492Z,3.57
2018-06-18T21:41:38.642Z,3.87
2018-06-18T21:44:13.719Z,3.00
2018-06-18T21:46:43.028Z,3.30
2018-06-18T21:49:12.202Z,3.07
2018-06-18T21:51:41.341Z,3.30
2018-06-18T21:54:10.512Z,3.13
2018-06-18T21:56:39.787Z,3.73
2018-06-18T21:59:08.962Z,4.00
2018-06-18T22:01:41.902Z,4.90
2018-06-18T22:04:11.108Z,3.77
2018-06-18T22:06:40.335Z,3.90
2018-06-18T22:09:14.489Z,4.13
2018-06-18T22:11:46.539Z,5.00
2018-06-18T22:14:15.684Z,4.10
2018-06-18T22:16:44.918Z,3.90
2018-06-18T22:19:14.040Z,3.90
2018-06-18T22:21:43.272Z,3.40
2018-06-18T22:24:12.432Z,3.53
2018-06-18T22:26:41.609Z,3.40
2018-06-18T22:29:11.284Z,3.30
2018-06-18T22:31:40.486Z,3.47
2018-06-18T22:34:09.779Z,3.20
2018-06-18T22:36:38.931Z,3.43
2018-06-18T22:39:10.933Z,3.20
2018-06-18T22:41:40.124Z,2.87
2018-06-18T22:44:10.454Z,3.13
2018-06-18T22:46:39.657Z,2.80
2018-06-18T22:49:08.870Z,2.87
2018-06-18T22:51:38.055Z,3.30
2018-06-18T22:54:07.602Z,2.80
2018-06-18T22:56:36.967Z,3.73
2018-06-18T22:59:06.318Z,3.10
2018-06-18T23:01:35.482Z,3.13
2018-06-18T23:04:04.764Z,2.90
2018-06-18T23:06:33.883Z,3.03
2018-06-18T23:09:09.006Z,3.13
2018-06-18T23:11:38.191Z,3.40
2018-06-18T23:14:12.407Z,3.30
2018-06-18T23:16:41.709Z,3.33
2018-06-18T23:19:10.830Z,3.27
2018-06-18T23:21:40.032Z,3.30
2018-06-18T23:24:09.215Z,3.57
2018-06-18T23:26:38.729Z,3.50
2018-06-18T23:29:11.597Z,3.57
2018-06-18T23:31:40.782Z,3.20
2018-06-18T23:34:09.919Z,2.70
2018-06-18T23:36:39.144Z,3.30
2018-06-18T23:39:10.158Z,3.17
2018-06-18T23:41:44.131Z,2.67
2018-06-18T23:44:13.257Z,3.53
2018-06-18T23:46:42.388Z,2.93
2018-06-18T23:49:11.536Z,2.93
2018-06-18T23:51:40.682Z,3.10
2018-06-18T23:54:09.809Z,3.73
2018-06-18T23:56:39.037Z,2.90
2018-06-18T23:59:10.003Z,3.20
